AIRPORT ID: KEFC

DATE: 2024-06-16 ZULU TIME: 14.55 LOCAL TIME: 8.55


METAR KEFC 161455Z AUTO 34005KT 10SM 16/M01 A2983

ALTIMETER: A2983 Q1010

DENSITY ALT: 4000 Ft

WIND DIRECT: 360

WIND SPEED: 5 Gust

WIND CONDITIONS:

VISIBILTY: 10SM 9999M

TEMPERATURE: 60 F 16 C

DEW POINT: 31 F -1 C

HUMID: 33%

LCL: Above 5,000 feet

RADIO CHECK: 0

ADVISARIES: 0

GREETINGS: 0

CONVERSATIONS: 0